sensor_id;sensor_type;location;lat;lon;timestamp;temperature;humidity
8565;DHT22;4320;51.498;6.556;2022-08-19T00:01:40;21.80;99.90
8565;DHT22;4320;51.498;6.556;2022-08-19T00:04:09;21.70;99.90
8565;DHT22;4320;51.498;6.556;2022-08-19T00:06:35;21.70;99.90
8565;DHT22;4320;51.498;6.556;2022-08-19T00:09:04;21.70;99.90
8565;DHT22;4320;51.498;6.556;2022-08-19T00:11:31;21.70;99.90
8565;DHT22;4320;51.498;6.556;2022-08-19T00:13:56;21.70;99.90
8565;DHT22;4320;51.498;6.556;2022-08-19T00:16:24;21.70;99.90
8565;DHT22;4320;51.498;6.556;2022-08-19T00:18:50;21.80;99.90
8565;DHT22;4320;51.498;6.556;2022-08-19T00:21:15;21.70;99.90
8565;DHT22;4320;51.498;6.556;2022-08-19T00:23:42;21.70;99.90
8565;DHT22;4320;51.498;6.556;2022-08-19T00:26:10;21.70;99.90
8565;DHT22;4320;51.498;6.556;2022-08-19T00:28:36;21.70;99.90
8565;DHT22;4320;51.498;6.556;2022-08-19T00:31:03;21.70;99.90
8565;DHT22;4320;51.498;6.556;2022-08-19T00:33:31;21.70;99.90
8565;DHT22;4320;51.498;6.556;2022-08-19T00:36:01;21.70;99.90
8565;DHT22;4320;51.498;6.556;2022-08-19T00:38:27;21.70;99.90
8565;DHT22;4320;51.498;6.556;2022-08-19T00:40:53;21.60;99.90
8565;DHT22;4320;51.498;6.556;2022-08-19T00:43:22;21.50;99.90
8565;DHT22;4320;51.498;6.556;2022-08-19T00:45:48;21.50;99.90
8565;DHT22;4320;51.498;6.556;2022-08-19T00:48:16;21.40;99.90
8565;DHT22;4320;51.498;6.556;2022-08-19T00:50:43;21.40;99.90
8565;DHT22;4320;51.498;6.556;2022-08-19T00:53:14;21.40;99.90
8565;DHT22;4320;51.498;6.556;2022-08-19T00:55:42;21.40;99.90
8565;DHT22;4320;51.498;6.556;2022-08-19T00:58:13;21.40;99.90
8565;DHT22;4320;51.498;6.556;2022-08-19T01:00:41;21.30;99.90
8565;DHT22;4320;51.498;6.556;2022-08-19T01:03:10;21.30;99.90
8565;DHT22;4320;51.498;6.556;2022-08-19T01:05:39;21.30;99.90
8565;DHT22;4320;51.498;6.556;2022-08-19T01:08:07;21.20;99.90
8565;DHT22;4320;51.498;6.556;2022-08-19T01:10:38;21.20;99.90
8565;DHT22;4320;51.498;6.556;2022-08-19T01:13:05;21.20;99.90
8565;DHT22;4320;51.498;6.556;2022-08-19T01:15:34;21.20;99.90
8565;DHT22;4320;51.498;6.556;2022-08-19T01:18:06;21.20;99.90
8565;DHT22;4320;51.498;6.556;2022-08-19T01:20:33;21.10;99.90
8565;DHT22;4320;51.498;6.556;2022-08-19T01:23:00;21.10;99.90
8565;DHT22;4320;51.498;6.556;2022-08-19T01:25:43;21.10;99.90
8565;DHT22;4320;51.498;6.556;2022-08-19T01:28:25;21.00;99.90
8565;DHT22;4320;51.498;6.556;2022-08-19T01:30:52;21.00;99.90
8565;DHT22;4320;51.498;6.556;2022-08-19T01:33:19;21.00;99.90
8565;DHT22;4320;51.498;6.556;2022-08-19T01:35:46;21.00;99.90
8565;DHT22;4320;51.498;6.556;2022-08-19T01:38:24;20.90;99.90
8565;DHT22;4320;51.498;6.556;2022-08-19T01:40:50;20.90;99.90
8565;DHT22;4320;51.498;6.556;2022-08-19T01:43:15;21.00;99.90
8565;DHT22;4320;51.498;6.556;2022-08-19T01:45:41;21.00;99.90
8565;DHT22;4320;51.498;6.556;2022-08-19T01:48:08;20.90;99.90
8565;DHT22;4320;51.498;6.556;2022-08-19T01:50:35;20.90;99.90
8565;DHT22;4320;51.498;6.556;2022-08-19T01:53:02;20.90;99.90
8565;DHT22;4320;51.498;6.556;2022-08-19T01:55:29;20.80;99.90
8565;DHT22;4320;51.498;6.556;2022-08-19T01:57:58;20.80;99.90
8565;DHT22;4320;51.498;6.556;2022-08-19T02:00:26;20.70;99.90
8565;DHT22;4320;51.498;6.556;2022-08-19T02:02:53;20.60;99.90
8565;DHT22;4320;51.498;6.556;2022-08-19T02:05:18;20.50;99.90
8565;DHT22;4320;51.498;6.556;2022-08-19T02:07:46;20.50;99.90
8565;DHT22;4320;51.498;6.556;2022-08-19T02:10:16;20.40;99.90
8565;DHT22;4320;51.498;6.556;2022-08-19T02:12:43;20.30;99.90
8565;DHT22;4320;51.498;6.556;2022-08-19T02:15:09;20.30;99.90
8565;DHT22;4320;51.498;6.556;2022-08-19T02:17:35;20.30;99.90
8565;DHT22;4320;51.498;6.556;2022-08-19T02:20:01;20.30;99.90
8565;DHT22;4320;51.498;6.556;2022-08-19T02:22:27;20.20;99.90
8565;DHT22;4320;51.498;6.556;2022-08-19T02:24:54;20.20;99.90
8565;DHT22;4320;51.498;6.556;2022-08-19T02:27:21;20.30;99.90
8565;DHT22;4320;51.498;6.556;2022-08-19T02:29:48;20.20;99.90
8565;DHT22;4320;51.498;6.556;2022-08-19T02:32:14;20.10;99.90
8565;DHT22;4320;51.498;6.556;2022-08-19T02:34:40;20.20;99.90
8565;DHT22;4320;51.498;6.556;2022-08-19T02:37:07;20.30;99.90
8565;DHT22;4320;51.498;6.556;2022-08-19T02:39:52;20.40;99.90
8565;DHT22;4320;51.498;6.556;2022-08-19T02:42:18;20.50;99.90
8565;DHT22;4320;51.498;6.556;2022-08-19T02:44:44;20.50;99.90
8565;DHT22;4320;51.498;6.556;2022-08-19T02:47:10;20.50;99.90
8565;DHT22;4320;51.498;6.556;2022-08-19T02:49:36;20.40;99.90
8565;DHT22;4320;51.498;6.556;2022-08-19T02:52:02;20.30;99.90
8565;DHT22;4320;51.498;6.556;2022-08-19T02:54:28;20.20;99.90
8565;DHT22;4320;51.498;6.556;2022-08-19T02:56:54;20.30;99.90
8565;DHT22;4320;51.498;6.556;2022-08-19T02:59:19;20.30;99.90
8565;DHT22;4320;51.498;6.556;2022-08-19T03:01:46;20.30;99.90
8565;DHT22;4320;51.498;6.556;2022-08-19T03:04:14;20.40;99.90
8565;DHT22;4320;51.498;6.556;2022-08-19T03:06:43;20.40;99.90
8565;DHT22;4320;51.498;6.556;2022-08-19T03:09:09;20.30;99.90
8565;DHT22;4320;51.498;6.556;2022-08-19T03:11:36;20.30;99.90
8565;DHT22;4320;51.498;6.556;2022-08-19T03:14:03;20.30;99.90
8565;DHT22;4320;51.498;6.556;2022-08-19T03:16:35;20.30;99.90
8565;DHT22;4320;51.498;6.556;2022-08-19T03:19:04;20.20;99.90
8565;DHT22;4320;51.498;6.556;2022-08-19T03:21:32;20.20;99.90
8565;DHT22;4320;51.498;6.556;2022-08-19T03:24:00;20.30;99.90
8565;DHT22;4320;51.498;6.556;2022-08-19T03:26:27;20.20;99.90
8565;DHT22;4320;51.498;6.556;2022-08-19T03:28:53;20.20;99.90
8565;DHT22;4320;51.498;6.556;2022-08-19T03:31:20;20.10;99.90
8565;DHT22;4320;51.498;6.556;2022-08-19T03:33:48;20.10;99.90
8565;DHT22;4320;51.498;6.556;2022-08-19T03:36:20;20.10;99.90
8565;DHT22;4320;51.498;6.556;2022-08-19T03:38:50;20.10;99.90
8565;DHT22;4320;51.498;6.556;2022-08-19T03:41:21;20.00;99.90
8565;DHT22;4320;51.498;6.556;2022-08-19T03:43:48;20.00;99.90
8565;DHT22;4320;51.498;6.556;2022-08-19T03:46:26;20.00;99.90
8565;DHT22;4320;51.498;6.556;2022-08-19T03:48:54;20.10;99.90
8565;DHT22;4320;51.498;6.556;2022-08-19T03:51:28;20.00;99.90
8565;DHT22;4320;51.498;6.556;2022-08-19T03:53:57;20.00;99.90
8565;DHT22;4320;51.498;6.556;2022-08-19T03:56:23;20.00;99.90
8565;DHT22;4320;51.498;6.556;2022-08-19T03:58:51;20.00;99.90
8565;DHT22;4320;51.498;6.556;2022-08-19T04:01:20;20.00;99.90
8565;DHT22;4320;51.498;6.556;2022-08-19T04:03:47;20.10;99.90
8565;DHT22;4320;51.498;6.556;2022-08-19T04:06:18;20.00;99.90
8565;DHT22;4320;51.498;6.556;2022-08-19T04:08:47;19.90;99.90
8565;DHT22;4320;51.498;6.556;2022-08-19T04:11:16;19.80;99.90
8565;DHT22;4320;51.498;6.556;2022-08-19T04:13:42;19.80;99.90
8565;DHT22;4320;51.498;6.556;2022-08-19T04:16:11;19.80;99.90
8565;DHT22;4320;51.498;6.556;2022-08-19T04:18:38;19.70;99.90
8565;DHT22;4320;51.498;6.556;2022-08-19T04:21:04;19.70;99.90
8565;DHT22;4320;51.498;6.556;2022-08-19T04:23:31;19.80;99.90
8565;DHT22;4320;51.498;6.556;2022-08-19T04:25:57;19.70;99.90
8565;DHT22;4320;51.498;6.556;2022-08-19T04:28:23;19.70;99.90
8565;DHT22;4320;51.498;6.556;2022-08-19T04:30:52;19.70;99.90
8565;DHT22;4320;51.498;6.556;2022-08-19T04:33:21;19.70;99.90
8565;DHT22;4320;51.498;6.556;2022-08-19T04:35:49;19.60;99.90
8565;DHT22;4320;51.498;6.556;2022-08-19T04:38:17;19.60;99.90
8565;DHT22;4320;51.498;6.556;2022-08-19T04:40:45;19.60;99.90
8565;DHT22;4320;51.498;6.556;2022-08-19T04:43:31;19.60;99.90
8565;DHT22;4320;51.498;6.556;2022-08-19T04:45:57;19.50;99.90
8565;DHT22;4320;51.498;6.556;2022-08-19T04:48:23;19.40;99.90
8565;DHT22;4320;51.498;6.556;2022-08-19T04:50:54;19.40;99.90
8565;DHT22;4320;51.498;6.556;2022-08-19T04:53:27;19.40;99.90
8565;DHT22;4320;51.498;6.556;2022-08-19T04:55:54;19.40;99.90
8565;DHT22;4320;51.498;6.556;2022-08-19T04:58:20;19.40;99.90
8565;DHT22;4320;51.498;6.556;2022-08-19T05:00:46;19.40;99.90
8565;DHT22;4320;51.498;6.556;2022-08-19T05:03:11;19.50;99.90
8565;DHT22;4320;51.498;6.556;2022-08-19T05:05:40;19.50;99.90
8565;DHT22;4320;51.498;6.556;2022-08-19T05:08:06;19.60;99.90
8565;DHT22;4320;51.498;6.556;2022-08-19T05:10:37;19.60;99.90
8565;DHT22;4320;51.498;6.556;2022-08-19T05:13:03;19.60;99.90
8565;DHT22;4320;51.498;6.556;2022-08-19T05:15:29;19.60;99.90
8565;DHT22;4320;51.498;6.556;2022-08-19T05:17:55;19.60;99.90
8565;DHT22;4320;51.498;6.556;2022-08-19T05:20:39;19.60;99.90
8565;DHT22;4320;51.498;6.556;2022-08-19T05:23:24;19.70;99.90
8565;DHT22;4320;51.498;6.556;2022-08-19T05:25:50;19.80;99.90
8565;DHT22;4320;51.498;6.556;2022-08-19T05:28:18;19.80;99.90
8565;DHT22;4320;51.498;6.556;2022-08-19T05:30:44;19.80;99.90
8565;DHT22;4320;51.498;6.556;2022-08-19T05:33:10;19.90;99.90
8565;DHT22;4320;51.498;6.556;2022-08-19T05:35:40;20.00;99.90
8565;DHT22;4320;51.498;6.556;2022-08-19T05:38:07;20.00;99.90
8565;DHT22;4320;51.498;6.556;2022-08-19T05:40:37;20.10;99.90
8565;DHT22;4320;51.498;6.556;2022-08-19T05:43:04;20.10;99.90
8565;DHT22;4320;51.498;6.556;2022-08-19T05:45:31;20.20;99.90
8565;DHT22;4320;51.498;6.556;2022-08-19T05:47:56;20.30;99.90
8565;DHT22;4320;51.498;6.556;2022-08-19T05:50:24;20.30;99.90
8565;DHT22;4320;51.498;6.556;2022-08-19T05:52:50;20.30;99.90
8565;DHT22;4320;51.498;6.556;2022-08-19T05:55:16;20.30;99.90
8565;DHT22;4320;51.498;6.556;2022-08-19T05:57:42;20.30;99.90
8565;DHT22;4320;51.498;6.556;2022-08-19T06:00:08;20.30;99.90
8565;DHT22;4320;51.498;6.556;2022-08-19T06:02:36;20.40;99.90
8565;DHT22;4320;51.498;6.556;2022-08-19T06:05:03;20.60;99.90
8565;DHT22;4320;51.498;6.556;2022-08-19T06:07:29;20.90;99.90
8565;DHT22;4320;51.498;6.556;2022-08-19T06:09:55;21.20;99.90
8565;DHT22;4320;51.498;6.556;2022-08-19T06:12:21;21.30;99.90
8565;DHT22;4320;51.498;6.556;2022-08-19T06:14:59;21.30;99.90
8565;DHT22;4320;51.498;6.556;2022-08-19T06:17:24;21.50;99.90
8565;DHT22;4320;51.498;6.556;2022-08-19T06:19:51;21.40;99.90
8565;DHT22;4320;51.498;6.556;2022-08-19T06:22:17;21.40;99.90
8565;DHT22;4320;51.498;6.556;2022-08-19T06:24:43;21.50;99.90
8565;DHT22;4320;51.498;6.556;2022-08-19T06:27:08;21.60;99.90
8565;DHT22;4320;51.498;6.556;2022-08-19T06:29:34;21.60;99.90
8565;DHT22;4320;51.498;6.556;2022-08-19T06:32:02;21.60;99.90
8565;DHT22;4320;51.498;6.556;2022-08-19T06:34:31;21.60;99.90
8565;DHT22;4320;51.498;6.556;2022-08-19T06:36:59;21.70;99.90
8565;DHT22;4320;51.498;6.556;2022-08-19T06:39:32;21.90;99.90
8565;DHT22;4320;51.498;6.556;2022-08-19T06:42:00;21.70;99.90
8565;DHT22;4320;51.498;6.556;2022-08-19T06:44:33;21.80;99.90
8565;DHT22;4320;51.498;6.556;2022-08-19T06:47:05;21.80;99.90
8565;DHT22;4320;51.498;6.556;2022-08-19T06:49:31;21.90;99.90
8565;DHT22;4320;51.498;6.556;2022-08-19T06:51:58;22.00;99.90
8565;DHT22;4320;51.498;6.556;2022-08-19T06:54:25;22.10;99.90
8565;DHT22;4320;51.498;6.556;2022-08-19T06:56:51;22.30;99.90
8565;DHT22;4320;51.498;6.556;2022-08-19T06:59:21;22.50;99.90
8565;DHT22;4320;51.498;6.556;2022-08-19T07:01:50;22.60;99.90
8565;DHT22;4320;51.498;6.556;2022-08-19T07:04:18;22.60;99.90
8565;DHT22;4320;51.498;6.556;2022-08-19T07:06:44;22.40;99.90
8565;DHT22;4320;51.498;6.556;2022-08-19T07:09:13;22.20;99.90
8565;DHT22;4320;51.498;6.556;2022-08-19T07:11:45;22.30;99.90
8565;DHT22;4320;51.498;6.556;2022-08-19T07:14:11;22.60;99.90
8565;DHT22;4320;51.498;6.556;2022-08-19T07:16:37;22.90;99.90
8565;DHT22;4320;51.498;6.556;2022-08-19T07:19:03;23.10;99.90
8565;DHT22;4320;51.498;6.556;2022-08-19T07:21:29;23.10;99.90
8565;DHT22;4320;51.498;6.556;2022-08-19T07:23:56;23.10;99.90
8565;DHT22;4320;51.498;6.556;2022-08-19T07:26:26;23.10;99.90
8565;DHT22;4320;51.498;6.556;2022-08-19T07:28:52;22.70;99.90
8565;DHT22;4320;51.498;6.556;2022-08-19T07:31:21;22.60;99.90
8565;DHT22;4320;51.498;6.556;2022-08-19T07:33:50;22.60;99.90
8565;DHT22;4320;51.498;6.556;2022-08-19T07:36:18;22.60;99.90
8565;DHT22;4320;51.498;6.556;2022-08-19T07:38:45;22.90;99.90
8565;DHT22;4320;51.498;6.556;2022-08-19T07:41:16;23.30;99.90
8565;DHT22;4320;51.498;6.556;2022-08-19T07:43:42;23.30;99.90
8565;DHT22;4320;51.498;6.556;2022-08-19T07:46:09;23.40;99.90
8565;DHT22;4320;51.498;6.556;2022-08-19T07:48:36;23.70;99.90
8565;DHT22;4320;51.498;6.556;2022-08-19T07:51:04;23.70;99.90
8565;DHT22;4320;51.498;6.556;2022-08-19T07:53:31;23.70;99.90
8565;DHT22;4320;51.498;6.556;2022-08-19T07:55:59;23.70;99.90
8565;DHT22;4320;51.498;6.556;2022-08-19T07:58:28;23.90;99.90
8565;DHT22;4320;51.498;6.556;2022-08-19T08:00:54;23.70;99.90
8565;DHT22;4320;51.498;6.556;2022-08-19T08:03:21;23.70;99.90
8565;DHT22;4320;51.498;6.556;2022-08-19T08:06:08;23.40;99.90
8565;DHT22;4320;51.498;6.556;2022-08-19T08:08:52;23.20;99.90
8565;DHT22;4320;51.498;6.556;2022-08-19T08:14:03;22.90;99.90
8565;DHT22;4320;51.498;6.556;2022-08-19T08:16:31;22.80;99.90
8565;DHT22;4320;51.498;6.556;2022-08-19T08:18:58;22.80;99.90
8565;DHT22;4320;51.498;6.556;2022-08-19T08:21:24;22.90;99.90
8565;DHT22;4320;51.498;6.556;2022-08-19T08:23:50;23.00;99.90
8565;DHT22;4320;51.498;6.556;2022-08-19T08:26:17;23.20;99.90
8565;DHT22;4320;51.498;6.556;2022-08-19T08:28:43;23.20;99.90
8565;DHT22;4320;51.498;6.556;2022-08-19T08:31:08;23.20;99.90
8565;DHT22;4320;51.498;6.556;2022-08-19T08:33:34;23.00;99.90
8565;DHT22;4320;51.498;6.556;2022-08-19T08:36:02;23.10;99.90
8565;DHT22;4320;51.498;6.556;2022-08-19T08:38:28;23.20;99.90
8565;DHT22;4320;51.498;6.556;2022-08-19T08:41:00;23.20;99.90
8565;DHT22;4320;51.498;6.556;2022-08-19T08:43:37;23.50;99.90
8565;DHT22;4320;51.498;6.556;2022-08-19T08:46:10;23.60;99.90
8565;DHT22;4320;51.498;6.556;2022-08-19T08:51:34;23.80;99.90
8565;DHT22;4320;51.498;6.556;2022-08-19T08:54:04;23.90;99.90
8565;DHT22;4320;51.498;6.556;2022-08-19T08:56:32;23.90;99.90
8565;DHT22;4320;51.498;6.556;2022-08-19T08:59:16;24.00;99.90
8565;DHT22;4320;51.498;6.556;2022-08-19T09:01:44;24.10;99.90
8565;DHT22;4320;51.498;6.556;2022-08-19T09:04:12;24.00;99.90
8565;DHT22;4320;51.498;6.556;2022-08-19T09:09:29;24.00;99.90
8565;DHT22;4320;51.498;6.556;2022-08-19T09:14:58;23.80;99.90
8565;DHT22;4320;51.498;6.556;2022-08-19T09:17:28;23.80;99.90
8565;DHT22;4320;51.498;6.556;2022-08-19T09:22:41;23.90;99.90
8565;DHT22;4320;51.498;6.556;2022-08-19T09:25:10;24.00;99.90
8565;DHT22;4320;51.498;6.556;2022-08-19T09:27:38;24.00;99.90
8565;DHT22;4320;51.498;6.556;2022-08-19T09:30:06;24.00;99.90
8565;DHT22;4320;51.498;6.556;2022-08-19T09:32:33;24.00;97.70
8565;DHT22;4320;51.498;6.556;2022-08-19T09:34:59;23.90;96.40
8565;DHT22;4320;51.498;6.556;2022-08-19T09:37:26;24.00;94.60
8565;DHT22;4320;51.498;6.556;2022-08-19T09:39:52;23.90;93.00
8565;DHT22;4320;51.498;6.556;2022-08-19T09:42:19;23.90;93.30
8565;DHT22;4320;51.498;6.556;2022-08-19T09:44:45;23.90;93.40
8565;DHT22;4320;51.498;6.556;2022-08-19T09:47:12;24.00;93.50
8565;DHT22;4320;51.498;6.556;2022-08-19T09:49:39;24.10;93.20
8565;DHT22;4320;51.498;6.556;2022-08-19T09:52:10;24.10;92.10
8565;DHT22;4320;51.498;6.556;2022-08-19T09:54:37;24.10;90.00
8565;DHT22;4320;51.498;6.556;2022-08-19T09:57:03;24.20;90.70
8565;DHT22;4320;51.498;6.556;2022-08-19T09:59:29;24.10;88.50
8565;DHT22;4320;51.498;6.556;2022-08-19T10:01:55;24.20;87.40
8565;DHT22;4320;51.498;6.556;2022-08-19T10:04:21;24.20;81.50
8565;DHT22;4320;51.498;6.556;2022-08-19T10:06:48;24.40;81.10
8565;DHT22;4320;51.498;6.556;2022-08-19T10:09:17;24.40;78.80
8565;DHT22;4320;51.498;6.556;2022-08-19T10:11:44;24.50;77.30
8565;DHT22;4320;51.498;6.556;2022-08-19T10:14:15;24.60;76.10
8565;DHT22;4320;51.498;6.556;2022-08-19T10:16:42;24.70;72.20
8565;DHT22;4320;51.498;6.556;2022-08-19T10:19:08;24.70;70.40
8565;DHT22;4320;51.498;6.556;2022-08-19T10:21:35;24.70;68.40
8565;DHT22;4320;51.498;6.556;2022-08-19T10:24:03;24.70;64.10
8565;DHT22;4320;51.498;6.556;2022-08-19T10:26:35;24.60;62.10
8565;DHT22;4320;51.498;6.556;2022-08-19T10:29:03;24.70;60.00
8565;DHT22;4320;51.498;6.556;2022-08-19T10:31:31;24.70;60.10
8565;DHT22;4320;51.498;6.556;2022-08-19T10:33:58;24.70;57.00
8565;DHT22;4320;51.498;6.556;2022-08-19T10:36:28;24.70;56.90
8565;DHT22;4320;51.498;6.556;2022-08-19T10:38:57;24.70;52.90
8565;DHT22;4320;51.498;6.556;2022-08-19T10:41:26;24.90;51.30
8565;DHT22;4320;51.498;6.556;2022-08-19T10:43:54;24.90;48.10
8565;DHT22;4320;51.498;6.556;2022-08-19T10:46:22;25.00;46.80
8565;DHT22;4320;51.498;6.556;2022-08-19T10:48:49;25.10;45.60
8565;DHT22;4320;51.498;6.556;2022-08-19T10:51:15;25.20;43.10
8565;DHT22;4320;51.498;6.556;2022-08-19T10:54:00;25.20;34.50
8565;DHT22;4320;51.498;6.556;2022-08-19T10:56:27;25.20;29.90
8565;DHT22;4320;51.498;6.556;2022-08-19T10:59:11;25.20;27.90
8565;DHT22;4320;51.498;6.556;2022-08-19T11:01:41;25.20;28.30
8565;DHT22;4320;51.498;6.556;2022-08-19T11:04:07;25.30;26.20
8565;DHT22;4320;51.498;6.556;2022-08-19T11:06:35;25.30;21.90
8565;DHT22;4320;51.498;6.556;2022-08-19T11:09:02;25.40;12.50
8565;DHT22;4320;51.498;6.556;2022-08-19T11:11:28;25.50;8.20
8565;DHT22;4320;51.498;6.556;2022-08-19T11:13:54;25.50;8.10
8565;DHT22;4320;51.498;6.556;2022-08-19T11:16:25;25.60;8.10
8565;DHT22;4320;51.498;6.556;2022-08-19T11:18:57;25.70;8.20
8565;DHT22;4320;51.498;6.556;2022-08-19T11:21:33;25.60;8.10
8565;DHT22;4320;51.498;6.556;2022-08-19T11:24:03;25.80;8.30
8565;DHT22;4320;51.498;6.556;2022-08-19T11:26:30;25.90;8.30
8565;DHT22;4320;51.498;6.556;2022-08-19T11:28:57;26.10;3.20
8565;DHT22;4320;51.498;6.556;2022-08-19T11:31:26;26.10;1.00
8565;DHT22;4320;51.498;6.556;2022-08-19T11:33:52;26.10;1.00
8565;DHT22;4320;51.498;6.556;2022-08-19T11:36:21;26.00;1.00
8565;DHT22;4320;51.498;6.556;2022-08-19T11:38:48;25.90;1.00
8565;DHT22;4320;51.498;6.556;2022-08-19T11:41:16;25.90;1.00
8565;DHT22;4320;51.498;6.556;2022-08-19T11:43:43;25.90;1.00
8565;DHT22;4320;51.498;6.556;2022-08-19T11:46:12;25.90;1.00
8565;DHT22;4320;51.498;6.556;2022-08-19T11:48:38;26.00;1.00
8565;DHT22;4320;51.498;6.556;2022-08-19T11:51:07;25.90;1.00
8565;DHT22;4320;51.498;6.556;2022-08-19T11:53:34;25.90;1.00
8565;DHT22;4320;51.498;6.556;2022-08-19T11:55:59;25.90;1.00
8565;DHT22;4320;51.498;6.556;2022-08-19T11:58:25;26.00;1.00
8565;DHT22;4320;51.498;6.556;2022-08-19T12:00:52;26.10;1.00
8565;DHT22;4320;51.498;6.556;2022-08-19T12:03:17;26.00;1.00
8565;DHT22;4320;51.498;6.556;2022-08-19T12:05:44;26.20;1.00
8565;DHT22;4320;51.498;6.556;2022-08-19T12:08:11;26.30;1.00
8565;DHT22;4320;51.498;6.556;2022-08-19T12:10:39;26.30;1.00
8565;DHT22;4320;51.498;6.556;2022-08-19T12:13:05;26.50;1.00
8565;DHT22;4320;51.498;6.556;2022-08-19T12:15:36;26.70;1.00
8565;DHT22;4320;51.498;6.556;2022-08-19T12:18:03;26.90;1.00
8565;DHT22;4320;51.498;6.556;2022-08-19T12:20:28;27.10;1.00
8565;DHT22;4320;51.498;6.556;2022-08-19T12:22:54;26.90;1.00
8565;DHT22;4320;51.498;6.556;2022-08-19T12:25:20;26.80;1.00
8565;DHT22;4320;51.498;6.556;2022-08-19T12:27:46;27.00;1.00
8565;DHT22;4320;51.498;6.556;2022-08-19T12:30:13;27.30;1.00
8565;DHT22;4320;51.498;6.556;2022-08-19T12:32:39;27.50;1.00
8565;DHT22;4320;51.498;6.556;2022-08-19T12:35:06;27.70;1.00
8565;DHT22;4320;51.498;6.556;2022-08-19T12:37:33;27.90;1.00
8565;DHT22;4320;51.498;6.556;2022-08-19T12:39:59;28.00;1.00
8565;DHT22;4320;51.498;6.556;2022-08-19T12:42:24;27.90;1.00
8565;DHT22;4320;51.498;6.556;2022-08-19T12:44:50;28.30;1.00
8565;DHT22;4320;51.498;6.556;2022-08-19T12:47:17;28.50;1.00
8565;DHT22;4320;51.498;6.556;2022-08-19T12:49:43;28.70;1.00
8565;DHT22;4320;51.498;6.556;2022-08-19T12:52:10;29.00;1.00
8565;DHT22;4320;51.498;6.556;2022-08-19T12:54:36;29.10;1.00
8565;DHT22;4320;51.498;6.556;2022-08-19T12:57:06;29.10;1.00
8565;DHT22;4320;51.498;6.556;2022-08-19T12:59:33;29.20;1.00
8565;DHT22;4320;51.498;6.556;2022-08-19T13:02:00;29.30;1.00
8565;DHT22;4320;51.498;6.556;2022-08-19T13:04:25;29.40;1.00
8565;DHT22;4320;51.498;6.556;2022-08-19T13:06:51;29.40;1.00
8565;DHT22;4320;51.498;6.556;2022-08-19T13:09:17;29.20;1.00
8565;DHT22;4320;51.498;6.556;2022-08-19T13:11:42;29.40;1.00
8565;DHT22;4320;51.498;6.556;2022-08-19T13:14:09;29.00;1.00
8565;DHT22;4320;51.498;6.556;2022-08-19T13:16:36;29.00;1.00
8565;DHT22;4320;51.498;6.556;2022-08-19T13:19:04;29.20;1.00
8565;DHT22;4320;51.498;6.556;2022-08-19T13:21:30;29.10;1.00
8565;DHT22;4320;51.498;6.556;2022-08-19T13:23:56;29.10;1.00
8565;DHT22;4320;51.498;6.556;2022-08-19T13:26:22;29.00;1.00
8565;DHT22;4320;51.498;6.556;2022-08-19T13:28:47;29.00;1.00
8565;DHT22;4320;51.498;6.556;2022-08-19T13:31:33;29.00;1.00
8565;DHT22;4320;51.498;6.556;2022-08-19T13:34:25;28.90;1.00
8565;DHT22;4320;51.498;6.556;2022-08-19T13:36:52;29.10;1.00
8565;DHT22;4320;51.498;6.556;2022-08-19T13:39:19;29.00;1.00
8565;DHT22;4320;51.498;6.556;2022-08-19T13:41:46;29.00;1.00
8565;DHT22;4320;51.498;6.556;2022-08-19T13:44:18;28.90;1.00
8565;DHT22;4320;51.498;6.556;2022-08-19T13:46:45;28.80;1.00
8565;DHT22;4320;51.498;6.556;2022-08-19T13:49:12;28.80;1.00
8565;DHT22;4320;51.498;6.556;2022-08-19T13:51:39;28.80;1.00
8565;DHT22;4320;51.498;6.556;2022-08-19T13:54:06;29.00;1.00
8565;DHT22;4320;51.498;6.556;2022-08-19T13:56:32;28.80;1.00
8565;DHT22;4320;51.498;6.556;2022-08-19T13:58:58;28.80;1.00
8565;DHT22;4320;51.498;6.556;2022-08-19T14:01:23;28.80;1.00
8565;DHT22;4320;51.498;6.556;2022-08-19T14:03:49;28.70;1.00
8565;DHT22;4320;51.498;6.556;2022-08-19T14:06:15;28.60;1.00
8565;DHT22;4320;51.498;6.556;2022-08-19T14:08:42;28.50;1.00
8565;DHT22;4320;51.498;6.556;2022-08-19T14:11:08;28.50;1.00
8565;DHT22;4320;51.498;6.556;2022-08-19T14:13:34;28.50;1.00
8565;DHT22;4320;51.498;6.556;2022-08-19T14:16:00;28.30;1.00
8565;DHT22;4320;51.498;6.556;2022-08-19T14:18:26;28.30;1.00
8565;DHT22;4320;51.498;6.556;2022-08-19T14:20:52;28.10;1.00
8565;DHT22;4320;51.498;6.556;2022-08-19T14:23:18;28.10;1.00
8565;DHT22;4320;51.498;6.556;2022-08-19T14:25:44;28.10;1.00
8565;DHT22;4320;51.498;6.556;2022-08-19T14:28:10;28.10;1.00
8565;DHT22;4320;51.498;6.556;2022-08-19T14:30:37;28.10;1.00
8565;DHT22;4320;51.498;6.556;2022-08-19T14:33:05;28.00;1.00
8565;DHT22;4320;51.498;6.556;2022-08-19T14:35:32;28.00;1.00
8565;DHT22;4320;51.498;6.556;2022-08-19T14:38:02;28.00;1.00
8565;DHT22;4320;51.498;6.556;2022-08-19T14:40:29;27.90;1.00
8565;DHT22;4320;51.498;6.556;2022-08-19T14:42:58;27.80;1.00
8565;DHT22;4320;51.498;6.556;2022-08-19T14:45:28;27.80;1.00
8565;DHT22;4320;51.498;6.556;2022-08-19T14:47:54;27.70;1.00
8565;DHT22;4320;51.498;6.556;2022-08-19T14:50:20;27.70;1.00
8565;DHT22;4320;51.498;6.556;2022-08-19T14:52:48;27.70;1.00
8565;DHT22;4320;51.498;6.556;2022-08-19T14:55:17;27.60;1.00
8565;DHT22;4320;51.498;6.556;2022-08-19T14:57:44;27.50;1.00
8565;DHT22;4320;51.498;6.556;2022-08-19T15:00:11;27.50;1.00
8565;DHT22;4320;51.498;6.556;2022-08-19T15:02:38;27.60;1.00
8565;DHT22;4320;51.498;6.556;2022-08-19T15:05:05;27.60;1.00
8565;DHT22;4320;51.498;6.556;2022-08-19T15:07:30;27.60;1.00
8565;DHT22;4320;51.498;6.556;2022-08-19T15:09:57;27.60;1.00
8565;DHT22;4320;51.498;6.556;2022-08-19T15:12:23;27.60;1.00
8565;DHT22;4320;51.498;6.556;2022-08-19T15:14:49;27.50;1.00
8565;DHT22;4320;51.498;6.556;2022-08-19T15:17:17;27.50;1.00
8565;DHT22;4320;51.498;6.556;2022-08-19T15:19:44;27.60;1.00
8565;DHT22;4320;51.498;6.556;2022-08-19T15:22:11;27.50;1.00
8565;DHT22;4320;51.498;6.556;2022-08-19T15:24:39;27.50;1.00
8565;DHT22;4320;51.498;6.556;2022-08-19T15:27:05;27.40;1.00
8565;DHT22;4320;51.498;6.556;2022-08-19T15:29:32;27.30;1.00
8565;DHT22;4320;51.498;6.556;2022-08-19T15:31:58;27.40;1.00
8565;DHT22;4320;51.498;6.556;2022-08-19T15:34:24;27.50;1.00
8565;DHT22;4320;51.498;6.556;2022-08-19T15:36:51;27.40;1.00
8565;DHT22;4320;51.498;6.556;2022-08-19T15:39:18;27.40;1.00
8565;DHT22;4320;51.498;6.556;2022-08-19T15:41:44;27.40;1.00
8565;DHT22;4320;51.498;6.556;2022-08-19T15:44:13;27.40;1.00
8565;DHT22;4320;51.498;6.556;2022-08-19T15:46:42;27.30;1.00
8565;DHT22;4320;51.498;6.556;2022-08-19T15:49:11;27.30;1.00
8565;DHT22;4320;51.498;6.556;2022-08-19T15:51:57;27.30;1.00
8565;DHT22;4320;51.498;6.556;2022-08-19T15:54:24;27.30;1.00
8565;DHT22;4320;51.498;6.556;2022-08-19T15:56:51;27.30;1.00
8565;DHT22;4320;51.498;6.556;2022-08-19T15:59:36;27.30;1.00
8565;DHT22;4320;51.498;6.556;2022-08-19T16:02:24;27.30;1.00
8565;DHT22;4320;51.498;6.556;2022-08-19T16:05:11;27.20;1.00
8565;DHT22;4320;51.498;6.556;2022-08-19T16:07:56;27.20;1.00
8565;DHT22;4320;51.498;6.556;2022-08-19T16:10:22;27.20;1.00
8565;DHT22;4320;51.498;6.556;2022-08-19T16:12:47;27.10;1.00
8565;DHT22;4320;51.498;6.556;2022-08-19T16:15:14;27.10;1.00
8565;DHT22;4320;51.498;6.556;2022-08-19T16:17:42;26.90;1.00
8565;DHT22;4320;51.498;6.556;2022-08-19T16:20:11;27.00;1.00
8565;DHT22;4320;51.498;6.556;2022-08-19T16:22:38;26.80;1.00
8565;DHT22;4320;51.498;6.556;2022-08-19T16:25:06;26.70;1.00
8565;DHT22;4320;51.498;6.556;2022-08-19T16:27:32;26.60;1.00